sensor_id;sensor_type;location;lat;lon;timestamp;pressure;altitude;pressure_sealevel;temperature;humidity
75418;BME280;63997;52.112;5.420;2024-03-02T00:01:19;99810.44;;;8.20;85.64
75418;BME280;63997;52.112;5.420;2024-03-02T00:03:46;99811.97;;;8.21;85.39
75418;BME280;63997;52.112;5.420;2024-03-02T00:06:13;99806.00;;;8.25;85.80
75418;BME280;63997;52.112;5.420;2024-03-02T00:08:39;99801.38;;;8.21;85.58
75418;BME280;63997;52.112;5.420;2024-03-02T00:11:07;99812.09;;;8.25;85.28
75418;BME280;63997;52.112;5.420;2024-03-02T00:13:33;99810.66;;;8.28;85.40
75418;BME280;63997;52.112;5.420;2024-03-02T00:16:01;99825.25;;;8.34;85.31
75418;BME280;63997;52.112;5.420;2024-03-02T00:18:33;99842.06;;;8.38;85.13
75418;BME280;63997;52.112;5.420;2024-03-02T00:21:01;99828.47;;;8.39;85.02
75418;BME280;63997;52.112;5.420;2024-03-02T00:23:33;99836.75;;;8.38;85.39
75418;BME280;63997;52.112;5.420;2024-03-02T00:26:00;99850.44;;;8.40;85.10
75418;BME280;63997;52.112;5.420;2024-03-02T00:28:33;99856.84;;;8.39;85.51
75418;BME280;63997;52.112;5.420;2024-03-02T00:31:06;99865.56;;;8.39;85.15
75418;BME280;63997;52.112;5.420;2024-03-02T00:33:40;99870.88;;;8.39;85.25
75418;BME280;63997;52.112;5.420;2024-03-02T00:36:08;99887.72;;;8.35;85.62
75418;BME280;63997;52.112;5.420;2024-03-02T00:38:49;99893.97;;;8.30;86.04
75418;BME280;63997;52.112;5.420;2024-03-02T00:41:25;99904.47;;;8.27;86.32
75418;BME280;63997;52.112;5.420;2024-03-02T00:44:28;99924.13;;;8.26;86.80
75418;BME280;63997;52.112;5.420;2024-03-02T00:47:02;99925.09;;;8.21;87.33
75418;BME280;63997;52.112;5.420;2024-03-02T00:49:29;99915.91;;;8.18;87.44
75418;BME280;63997;52.112;5.420;2024-03-02T00:51:56;99921.41;;;8.13;87.92
75418;BME280;63997;52.112;5.420;2024-03-02T00:54:26;99915.09;;;8.06;88.91
75418;BME280;63997;52.112;5.420;2024-03-02T00:56:55;99925.09;;;8.00;89.46
75418;BME280;63997;52.112;5.420;2024-03-02T00:59:23;99923.75;;;7.94;89.81
75418;BME280;63997;52.112;5.420;2024-03-02T01:01:49;99927.25;;;7.86;90.69
75418;BME280;63997;52.112;5.420;2024-03-02T01:04:26;99931.97;;;7.80;91.57
75418;BME280;63997;52.112;5.420;2024-03-02T01:06:53;99932.91;;;7.76;91.78
75418;BME280;63997;52.112;5.420;2024-03-02T01:09:19;99934.97;;;7.70;92.20
75418;BME280;63997;52.112;5.420;2024-03-02T01:11:46;99930.31;;;7.67;92.48
75418;BME280;63997;52.112;5.420;2024-03-02T01:14:20;99933.16;;;7.62;92.85
75418;BME280;63997;52.112;5.420;2024-03-02T01:16:46;99938.94;;;7.55;93.43
75418;BME280;63997;52.112;5.420;2024-03-02T01:19:13;99930.09;;;7.51;94.05
75418;BME280;63997;52.112;5.420;2024-03-02T01:21:40;99920.50;;;7.47;94.52
75418;BME280;63997;52.112;5.420;2024-03-02T01:24:06;99937.63;;;7.40;94.92
75418;BME280;63997;52.112;5.420;2024-03-02T01:26:32;99942.78;;;7.37;95.58
75418;BME280;63997;52.112;5.420;2024-03-02T01:28:59;99950.91;;;7.32;96.10
75418;BME280;63997;52.112;5.420;2024-03-02T01:31:25;99954.50;;;7.27;96.83
75418;BME280;63997;52.112;5.420;2024-03-02T01:33:52;99949.06;;;7.24;97.02
75418;BME280;63997;52.112;5.420;2024-03-02T01:36:21;99938.03;;;7.22;97.18
75418;BME280;63997;52.112;5.420;2024-03-02T01:38:47;99934.47;;;7.18;97.44
75418;BME280;63997;52.112;5.420;2024-03-02T01:41:14;99940.41;;;7.14;97.80
75418;BME280;63997;52.112;5.420;2024-03-02T01:43:40;99941.03;;;7.11;98.35
75418;BME280;63997;52.112;5.420;2024-03-02T01:46:12;99945.88;;;7.09;98.77
75418;BME280;63997;52.112;5.420;2024-03-02T01:48:38;99950.72;;;7.07;99.19
75418;BME280;63997;52.112;5.420;2024-03-02T01:51:06;99947.25;;;7.07;99.42
75418;BME280;63997;52.112;5.420;2024-03-02T01:53:34;99955.84;;;7.04;99.86
75418;BME280;63997;52.112;5.420;2024-03-02T01:56:01;99948.22;;;7.02;99.87
75418;BME280;63997;52.112;5.420;2024-03-02T01:58:27;99950.41;;;7.00;100.00
75418;BME280;63997;52.112;5.420;2024-03-02T02:00:54;99950.28;;;6.97;100.00
75418;BME280;63997;52.112;5.420;2024-03-02T02:03:21;99948.69;;;6.96;100.00
75418;BME280;63997;52.112;5.420;2024-03-02T02:05:54;99955.41;;;6.93;100.00
75418;BME280;63997;52.112;5.420;2024-03-02T02:08:21;99934.88;;;6.90;100.00
75418;BME280;63997;52.112;5.420;2024-03-02T02:10:47;99948.41;;;6.88;100.00
75418;BME280;63997;52.112;5.420;2024-03-02T02:13:14;99956.66;;;6.87;100.00
75418;BME280;63997;52.112;5.420;2024-03-02T02:15:41;99959.63;;;6.85;100.00
75418;BME280;63997;52.112;5.420;2024-03-02T02:18:08;99957.00;;;6.85;100.00
75418;BME280;63997;52.112;5.420;2024-03-02T02:20:35;99952.31;;;6.82;100.00
75418;BME280;63997;52.112;5.420;2024-03-02T02:23:03;99947.38;;;6.81;100.00
75418;BME280;63997;52.112;5.420;2024-03-02T02:25:32;99954.03;;;6.78;100.00
75418;BME280;63997;52.112;5.420;2024-03-02T02:27:58;99943.34;;;6.75;100.00
75418;BME280;63997;52.112;5.420;2024-03-02T02:30:27;99941.78;;;6.74;100.00
75418;BME280;63997;52.112;5.420;2024-03-02T02:32:54;99948.78;;;6.70;100.00
75418;BME280;63997;52.112;5.420;2024-03-02T02:35:22;99933.56;;;6.67;100.00
75418;BME280;63997;52.112;5.420;2024-03-02T02:37:51;99948.50;;;6.62;100.00
75418;BME280;63997;52.112;5.420;2024-03-02T02:40:18;99957.81;;;6.60;100.00
75418;BME280;63997;52.112;5.420;2024-03-02T02:42:45;99961.56;;;6.59;100.00
75418;BME280;63997;52.112;5.420;2024-03-02T02:45:14;99952.38;;;6.56;100.00
75418;BME280;63997;52.112;5.420;2024-03-02T02:47:42;99962.94;;;6.56;100.00
75418;BME280;63997;52.112;5.420;2024-03-02T02:50:09;99956.75;;;6.52;100.00
75418;BME280;63997;52.112;5.420;2024-03-02T02:52:38;99957.38;;;6.49;100.00
75418;BME280;63997;52.112;5.420;2024-03-02T02:58:04;99958.00;;;6.46;100.00
75418;BME280;63997;52.112;5.420;2024-03-02T03:00:30;99962.81;;;6.44;100.00
75418;BME280;63997;52.112;5.420;2024-03-02T03:02:57;99957.06;;;6.42;100.00
75418;BME280;63997;52.112;5.420;2024-03-02T03:05:40;99963.44;;;6.41;100.00
75418;BME280;63997;52.112;5.420;2024-03-02T03:08:06;99953.97;;;6.40;100.00
75418;BME280;63997;52.112;5.420;2024-03-02T03:10:33;99956.13;;;6.38;100.00
75418;BME280;63997;52.112;5.420;2024-03-02T03:12:59;99959.09;;;6.36;100.00
75418;BME280;63997;52.112;5.420;2024-03-02T03:15:28;99960.47;;;6.34;100.00
75418;BME280;63997;52.112;5.420;2024-03-02T03:17:55;99950.56;;;6.31;100.00
75418;BME280;63997;52.112;5.420;2024-03-02T03:20:21;99959.56;;;6.30;100.00
75418;BME280;63997;52.112;5.420;2024-03-02T03:22:49;99957.09;;;6.25;100.00
75418;BME280;63997;52.112;5.420;2024-03-02T03:25:18;99964.53;;;6.23;100.00
75418;BME280;63997;52.112;5.420;2024-03-02T03:27:44;99959.09;;;6.19;100.00
75418;BME280;63997;52.112;5.420;2024-03-02T03:30:12;99968.41;;;6.17;100.00
75418;BME280;63997;52.112;5.420;2024-03-02T03:32:39;99965.63;;;6.13;100.00
75418;BME280;63997;52.112;5.420;2024-03-02T03:35:07;99980.19;;;6.10;100.00
75418;BME280;63997;52.112;5.420;2024-03-02T03:37:33;99973.69;;;6.08;100.00
75418;BME280;63997;52.112;5.420;2024-03-02T03:40:05;99978.19;;;6.07;100.00
75418;BME280;63997;52.112;5.420;2024-03-02T03:42:36;99983.47;;;6.07;100.00
75418;BME280;63997;52.112;5.420;2024-03-02T03:45:03;99980.53;;;6.09;100.00
75418;BME280;63997;52.112;5.420;2024-03-02T03:47:34;99973.38;;;6.09;100.00
75418;BME280;63997;52.112;5.420;2024-03-02T03:50:00;99984.38;;;6.12;100.00
75418;BME280;63997;52.112;5.420;2024-03-02T03:52:27;99983.78;;;6.15;100.00
75418;BME280;63997;52.112;5.420;2024-03-02T03:54:55;99986.88;;;6.17;100.00
75418;BME280;63997;52.112;5.420;2024-03-02T03:57:22;99980.22;;;6.19;100.00
75418;BME280;63997;52.112;5.420;2024-03-02T03:59:48;99976.16;;;6.22;100.00
75418;BME280;63997;52.112;5.420;2024-03-02T04:02:15;99979.59;;;6.22;100.00
75418;BME280;63997;52.112;5.420;2024-03-02T04:04:41;99971.38;;;6.24;100.00
75418;BME280;63997;52.112;5.420;2024-03-02T04:07:08;99983.47;;;6.25;100.00
75418;BME280;63997;52.112;5.420;2024-03-02T04:09:34;99988.13;;;6.28;100.00
75418;BME280;63997;52.112;5.420;2024-03-02T04:12:01;99988.91;;;6.28;100.00
75418;BME280;63997;52.112;5.420;2024-03-02T04:14:36;99997.13;;;6.27;100.00
75418;BME280;63997;52.112;5.420;2024-03-02T04:17:04;99992.94;;;6.26;100.00
75418;BME280;63997;52.112;5.420;2024-03-02T04:19:30;100003.50;;;6.26;100.00
75418;BME280;63997;52.112;5.420;2024-03-02T04:21:57;99997.91;;;6.27;100.00
75418;BME280;63997;52.112;5.420;2024-03-02T04:24:27;99995.28;;;6.27;100.00
75418;BME280;63997;52.112;5.420;2024-03-02T04:26:54;100001.03;;;6.29;100.00
75418;BME280;63997;52.112;5.420;2024-03-02T04:29:20;100002.91;;;6.29;100.00
75418;BME280;63997;52.112;5.420;2024-03-02T04:31:47;99997.00;;;6.32;100.00
75418;BME280;63997;52.112;5.420;2024-03-02T04:34:18;99998.53;;;6.33;100.00
75418;BME280;63997;52.112;5.420;2024-03-02T04:36:44;100009.09;;;6.33;100.00
75418;BME280;63997;52.112;5.420;2024-03-02T04:39:11;100006.47;;;6.33;100.00
75418;BME280;63997;52.112;5.420;2024-03-02T04:41:37;100004.59;;;6.33;100.00
75418;BME280;63997;52.112;5.420;2024-03-02T04:44:04;100008.00;;;6.34;100.00
75418;BME280;63997;52.112;5.420;2024-03-02T04:46:31;100014.69;;;6.31;100.00
75418;BME280;63997;52.112;5.420;2024-03-02T04:48:58;100008.66;;;6.31;100.00
75418;BME280;63997;52.112;5.420;2024-03-02T04:51:24;100020.28;;;6.30;100.00
75418;BME280;63997;52.112;5.420;2024-03-02T04:53:51;100026.34;;;6.30;100.00
75418;BME280;63997;52.112;5.420;2024-03-02T04:56:30;100025.56;;;6.30;100.00
75418;BME280;63997;52.112;5.420;2024-03-02T04:58:57;100024.03;;;6.29;100.00
75418;BME280;63997;52.112;5.420;2024-03-02T05:01:24;100038.59;;;6.26;100.00
75418;BME280;63997;52.112;5.420;2024-03-02T05:03:50;100030.69;;;6.26;100.00
75418;BME280;63997;52.112;5.420;2024-03-02T05:06:18;100033.00;;;6.28;100.00
75418;BME280;63997;52.112;5.420;2024-03-02T05:08:45;100037.22;;;6.29;100.00
75418;BME280;63997;52.112;5.420;2024-03-02T05:11:11;100035.19;;;6.26;100.00
75418;BME280;63997;52.112;5.420;2024-03-02T05:13:57;100034.88;;;6.27;100.00
75418;BME280;63997;52.112;5.420;2024-03-02T05:16:27;100034.09;;;6.27;100.00
75418;BME280;63997;52.112;5.420;2024-03-02T05:18:54;100032.56;;;6.26;100.00
75418;BME280;63997;52.112;5.420;2024-03-02T05:21:21;100045.44;;;6.27;100.00
75418;BME280;63997;52.112;5.420;2024-03-02T05:23:47;100036.44;;;6.28;100.00
75418;BME280;63997;52.112;5.420;2024-03-02T05:26:25;100040.16;;;6.27;100.00
75418;BME280;63997;52.112;5.420;2024-03-02T05:28:51;100040.66;;;6.29;100.00
75418;BME280;63997;52.112;5.420;2024-03-02T05:31:18;100042.50;;;6.29;100.00
75418;BME280;63997;52.112;5.420;2024-03-02T05:33:45;100045.44;;;6.27;100.00
75418;BME280;63997;52.112;5.420;2024-03-02T05:36:17;100042.50;;;6.29;100.00
75418;BME280;63997;52.112;5.420;2024-03-02T05:38:44;100043.56;;;6.28;100.00
75418;BME280;63997;52.112;5.420;2024-03-02T05:41:10;100044.22;;;6.25;100.00
75418;BME280;63997;52.112;5.420;2024-03-02T05:43:37;100043.59;;;6.19;100.00
75418;BME280;63997;52.112;5.420;2024-03-02T05:46:05;100039.22;;;6.15;99.81
75418;BME280;63997;52.112;5.420;2024-03-02T05:48:32;100043.09;;;6.08;99.21
75418;BME280;63997;52.112;5.420;2024-03-02T05:50:59;100050.69;;;6.01;98.82
75418;BME280;63997;52.112;5.420;2024-03-02T05:53:25;100047.75;;;6.03;98.78
75418;BME280;63997;52.112;5.420;2024-03-02T05:55:52;100044.78;;;6.04;98.84
75418;BME280;63997;52.112;5.420;2024-03-02T05:58:22;100056.91;;;6.05;98.39
75418;BME280;63997;52.112;5.420;2024-03-02T06:00:59;100060.81;;;6.08;98.30
75418;BME280;63997;52.112;5.420;2024-03-02T06:03:26;100059.53;;;6.05;98.10
75418;BME280;63997;52.112;5.420;2024-03-02T06:06:11;100060.47;;;6.09;98.15
75418;BME280;63997;52.112;5.420;2024-03-02T06:08:38;100060.81;;;6.08;98.31
75418;BME280;63997;52.112;5.420;2024-03-02T06:11:05;100069.94;;;6.02;98.56
75418;BME280;63997;52.112;5.420;2024-03-02T06:13:31;100079.56;;;5.98;98.77
75418;BME280;63997;52.112;5.420;2024-03-02T06:16:00;100078.31;;;5.95;99.09
75418;BME280;63997;52.112;5.420;2024-03-02T06:18:26;100074.59;;;5.96;99.36
75418;BME280;63997;52.112;5.420;2024-03-02T06:20:54;100076.13;;;5.97;99.61
75418;BME280;63997;52.112;5.420;2024-03-02T06:23:20;100076.28;;;5.92;99.96
75418;BME280;63997;52.112;5.420;2024-03-02T06:25:49;100087.41;;;5.89;100.00
75418;BME280;63997;52.112;5.420;2024-03-02T06:28:15;100090.66;;;5.86;100.00
75418;BME280;63997;52.112;5.420;2024-03-02T06:30:42;100095.47;;;5.84;100.00
75418;BME280;63997;52.112;5.420;2024-03-02T06:33:09;100090.50;;;5.82;100.00
75418;BME280;63997;52.112;5.420;2024-03-02T06:35:56;100104.16;;;5.84;100.00
75418;BME280;63997;52.112;5.420;2024-03-02T06:38:22;100094.84;;;5.87;100.00
75418;BME280;63997;52.112;5.420;2024-03-02T06:40:49;100099.53;;;5.90;100.00
75418;BME280;63997;52.112;5.420;2024-03-02T06:43:15;100099.25;;;5.92;100.00
75418;BME280;63997;52.112;5.420;2024-03-02T06:45:45;100102.25;;;6.07;100.00
75418;BME280;63997;52.112;5.420;2024-03-02T06:48:12;100100.75;;;6.50;100.00
75418;BME280;63997;52.112;5.420;2024-03-02T06:50:38;100101.72;;;6.54;100.00
75418;BME280;63997;52.112;5.420;2024-03-02T06:53:04;100098.13;;;6.41;99.69
75418;BME280;63997;52.112;5.420;2024-03-02T06:55:31;100098.59;;;6.43;99.82
75418;BME280;63997;52.112;5.420;2024-03-02T06:57:57;100101.41;;;6.81;99.60
75418;BME280;63997;52.112;5.420;2024-03-02T07:00:24;100096.94;;;7.46;98.38
75418;BME280;63997;52.112;5.420;2024-03-02T07:02:51;100099.94;;;7.27;96.15
75418;BME280;63997;52.112;5.420;2024-03-02T07:05:18;100090.81;;;7.07;96.06
75418;BME280;63997;52.112;5.420;2024-03-02T07:07:45;100093.91;;;7.18;96.05
75418;BME280;63997;52.112;5.420;2024-03-02T07:10:11;100101.94;;;7.39;95.87
75418;BME280;63997;52.112;5.420;2024-03-02T07:12:38;100102.72;;;7.39;94.54
75418;BME280;63997;52.112;5.420;2024-03-02T07:15:06;100097.25;;;7.45;94.32
75418;BME280;63997;52.112;5.420;2024-03-02T07:17:33;100104.03;;;8.01;94.62
75418;BME280;63997;52.112;5.420;2024-03-02T07:20:00;100106.81;;;8.43;92.16
75418;BME280;63997;52.112;5.420;2024-03-02T07:22:26;100103.38;;;8.42;91.07
75418;BME280;63997;52.112;5.420;2024-03-02T07:24:57;100093.03;;;8.70;90.23
75418;BME280;63997;52.112;5.420;2024-03-02T07:27:24;100099.91;;;8.71;88.48
75418;BME280;63997;52.112;5.420;2024-03-02T07:29:50;100112.69;;;8.69;88.91
75418;BME280;63997;52.112;5.420;2024-03-02T07:32:17;100111.25;;;8.93;88.56
75418;BME280;63997;52.112;5.420;2024-03-02T07:34:49;100109.09;;;9.65;88.65
75418;BME280;63997;52.112;5.420;2024-03-02T07:37:17;100102.75;;;11.23;84.97
75418;BME280;63997;52.112;5.420;2024-03-02T07:39:44;100107.25;;;11.51;79.75
75418;BME280;63997;52.112;5.420;2024-03-02T07:42:12;100111.56;;;11.11;78.37
75418;BME280;63997;52.112;5.420;2024-03-02T07:44:45;100114.75;;;10.61;78.58
75418;BME280;63997;52.112;5.420;2024-03-02T07:47:12;100124.53;;;10.32;79.62
75418;BME280;63997;52.112;5.420;2024-03-02T07:49:38;100119.88;;;10.17;80.03
75418;BME280;63997;52.112;5.420;2024-03-02T07:52:05;100123.41;;;9.60;80.84
75418;BME280;63997;52.112;5.420;2024-03-02T07:54:33;100130.81;;;9.21;81.77
75418;BME280;63997;52.112;5.420;2024-03-02T07:57:00;100126.06;;;8.94;83.17
75418;BME280;63997;52.112;5.420;2024-03-02T07:59:27;100129.88;;;8.84;84.32
75418;BME280;63997;52.112;5.420;2024-03-02T08:01:53;100131.69;;;8.71;84.86
75418;BME280;63997;52.112;5.420;2024-03-02T08:04:24;100135.75;;;8.48;85.03
75418;BME280;63997;52.112;5.420;2024-03-02T08:06:51;100133.31;;;8.34;85.84
75418;BME280;63997;52.112;5.420;2024-03-02T08:09:17;100137.09;;;8.25;86.27
75418;BME280;63997;52.112;5.420;2024-03-02T08:11:44;100144.34;;;8.15;86.53
75418;BME280;63997;52.112;5.420;2024-03-02T08:14:10;100146.06;;;8.11;87.16
75418;BME280;63997;52.112;5.420;2024-03-02T08:16:37;100146.72;;;8.08;87.54
75418;BME280;63997;52.112;5.420;2024-03-02T08:19:04;100145.19;;;7.99;87.96
75418;BME280;63997;52.112;5.420;2024-03-02T08:21:30;100139.38;;;8.05;88.49
75418;BME280;63997;52.112;5.420;2024-03-02T08:23:58;100149.97;;;8.43;87.94
75418;BME280;63997;52.112;5.420;2024-03-02T08:26:30;100144.22;;;9.04;86.54
75418;BME280;63997;52.112;5.420;2024-03-02T08:28:58;100143.50;;;9.49;85.36
75418;BME280;63997;52.112;5.420;2024-03-02T08:31:25;100145.75;;;9.71;83.64
75418;BME280;63997;52.112;5.420;2024-03-02T08:33:51;100138.44;;;9.80;83.29
75418;BME280;63997;52.112;5.420;2024-03-02T08:36:18;100141.56;;;10.07;82.93
75418;BME280;63997;52.112;5.420;2024-03-02T08:38:46;100136.81;;;10.37;81.44
75418;BME280;63997;52.112;5.420;2024-03-02T08:41:12;100133.34;;;10.61;80.54
75418;BME280;63997;52.112;5.420;2024-03-02T08:43:42;100142.19;;;10.65;78.83
75418;BME280;63997;52.112;5.420;2024-03-02T08:46:09;100142.91;;;10.13;79.41
75418;BME280;63997;52.112;5.420;2024-03-02T08:48:36;100151.16;;;9.75;81.58
75418;BME280;63997;52.112;5.420;2024-03-02T08:51:03;100145.81;;;9.50;82.34
75418;BME280;63997;52.112;5.420;2024-03-02T08:53:32;100136.50;;;9.32;82.83
75418;BME280;63997;52.112;5.420;2024-03-02T08:55:59;100141.44;;;9.21;83.16
75418;BME280;63997;52.112;5.420;2024-03-02T08:58:28;100136.63;;;9.48;84.06
75418;BME280;63997;52.112;5.420;2024-03-02T09:00:54;100144.78;;;10.13;82.97
75418;BME280;63997;52.112;5.420;2024-03-02T09:03:21;100135.81;;;10.05;80.42
75418;BME280;63997;52.112;5.420;2024-03-02T09:05:49;100152.84;;;9.79;80.83
75418;BME280;63997;52.112;5.420;2024-03-02T09:08:15;100148.22;;;10.50;80.29
75418;BME280;63997;52.112;5.420;2024-03-02T09:10:42;100147.06;;;12.07;76.95
75418;BME280;63997;52.112;5.420;2024-03-02T09:13:10;100137.63;;;13.22;71.60
75418;BME280;63997;52.112;5.420;2024-03-02T09:15:36;100141.63;;;11.87;72.67
75418;BME280;63997;52.112;5.420;2024-03-02T09:18:06;100147.03;;;12.58;72.92
75418;BME280;63997;52.112;5.420;2024-03-02T09:20:33;100141.66;;;12.93;69.21
75418;BME280;63997;52.112;5.420;2024-03-02T09:23:02;100141.34;;;13.83;67.75
75418;BME280;63997;52.112;5.420;2024-03-02T09:25:29;100133.22;;;15.15;63.96
75418;BME280;63997;52.112;5.420;2024-03-02T09:27:56;100136.78;;;14.93;60.79
75418;BME280;63997;52.112;5.420;2024-03-02T09:30:23;100149.44;;;13.21;64.48
75418;BME280;63997;52.112;5.420;2024-03-02T09:32:49;100150.34;;;13.09;65.21
75418;BME280;63997;52.112;5.420;2024-03-02T09:35:16;100143.78;;;13.45;65.32
75418;BME280;63997;52.112;5.420;2024-03-02T09:37:42;100159.81;;;13.07;65.11
75418;BME280;63997;52.112;5.420;2024-03-02T09:40:09;100148.72;;;13.05;66.20
75418;BME280;63997;52.112;5.420;2024-03-02T09:42:37;100157.00;;;13.38;64.77
75418;BME280;63997;52.112;5.420;2024-03-02T09:45:04;100161.03;;;13.09;63.83
75418;BME280;63997;52.112;5.420;2024-03-02T09:47:31;100158.66;;;12.50;63.39
75418;BME280;63997;52.112;5.420;2024-03-02T09:49:58;100167.66;;;11.94;65.98
75418;BME280;63997;52.112;5.420;2024-03-02T09:52:24;100166.25;;;11.53;66.95
75418;BME280;63997;52.112;5.420;2024-03-02T09:54:51;100175.38;;;11.24;68.73
75418;BME280;63997;52.112;5.420;2024-03-02T09:57:18;100167.34;;;11.08;70.30
75418;BME280;63997;52.112;5.420;2024-03-02T09:59:45;100164.91;;;11.03;71.19
75418;BME280;63997;52.112;5.420;2024-03-02T10:02:11;100164.56;;;11.04;71.18
75418;BME280;63997;52.112;5.420;2024-03-02T10:04:38;100173.59;;;10.88;70.59
75418;BME280;63997;52.112;5.420;2024-03-02T10:07:16;100168.75;;;10.77;71.95
75418;BME280;63997;52.112;5.420;2024-03-02T10:09:45;100160.78;;;10.77;71.71
75418;BME280;63997;52.112;5.420;2024-03-02T10:12:14;100160.09;;;10.80;72.46
75418;BME280;63997;52.112;5.420;2024-03-02T10:14:41;100163.41;;;10.90;71.86
75418;BME280;63997;52.112;5.420;2024-03-02T10:17:12;100161.81;;;11.01;72.78
75418;BME280;63997;52.112;5.420;2024-03-02T10:19:39;100160.25;;;11.00;71.70
75418;BME280;63997;52.112;5.420;2024-03-02T10:22:08;100165.09;;;10.82;72.08
75418;BME280;63997;52.112;5.420;2024-03-02T10:24:41;100165.38;;;10.93;71.99
75418;BME280;63997;52.112;5.420;2024-03-02T10:27:26;100161.38;;;10.99;71.78
75418;BME280;63997;52.112;5.420;2024-03-02T10:29:53;100173.13;;;10.98;70.21
75418;BME280;63997;52.112;5.420;2024-03-02T10:32:22;100169.28;;;10.95;72.17
75418;BME280;63997;52.112;5.420;2024-03-02T10:34:49;100167.97;;;10.89;71.18
75418;BME280;63997;52.112;5.420;2024-03-02T10:37:16;100149.00;;;10.91;71.22
75418;BME280;63997;52.112;5.420;2024-03-02T10:39:47;100153.88;;;10.89;70.58
75418;BME280;63997;52.112;5.420;2024-03-02T10:42:15;100162.72;;;10.93;70.66
75418;BME280;63997;52.112;5.420;2024-03-02T10:44:42;100145.88;;;11.01;71.69
75418;BME280;63997;52.112;5.420;2024-03-02T10:47:15;100129.22;;;11.04;72.26
75418;BME280;63997;52.112;5.420;2024-03-02T10:49:42;100133.88;;;11.07;71.81
75418;BME280;63997;52.112;5.420;2024-03-02T10:52:10;100139.56;;;10.93;70.67
75418;BME280;63997;52.112;5.420;2024-03-02T10:54:37;100135.25;;;10.89;71.65
75418;BME280;63997;52.112;5.420;2024-03-02T10:57:07;100126.84;;;10.86;70.32
75418;BME280;63997;52.112;5.420;2024-03-02T10:59:36;100121.66;;;10.78;71.36
75418;BME280;63997;52.112;5.420;2024-03-02T11:02:06;100127.53;;;10.83;71.99
75418;BME280;63997;52.112;5.420;2024-03-02T11:04:34;100116.84;;;10.96;71.97
75418;BME280;63997;52.112;5.420;2024-03-02T11:07:05;100133.16;;;11.10;71.47
75418;BME280;63997;52.112;5.420;2024-03-02T11:09:41;100125.13;;;11.22;69.78
75418;BME280;63997;52.112;5.420;2024-03-02T11:12:28;100123.16;;;11.19;69.83
75418;BME280;63997;52.112;5.420;2024-03-02T11:14:55;100128.41;;;11.31;70.81
75418;BME280;63997;52.112;5.420;2024-03-02T11:17:23;100135.06;;;11.53;70.53
75418;BME280;63997;52.112;5.420;2024-03-02T11:19:51;100122.69;;;11.61;70.09
75418;BME280;63997;52.112;5.420;2024-03-02T11:22:19;100126.38;;;11.72;68.90
75418;BME280;63997;52.112;5.420;2024-03-02T11:24:50;100131.22;;;11.82;68.61
75418;BME280;63997;52.112;5.420;2024-03-02T11:33:05;100122.28;;;11.59;68.22
75418;BME280;63997;52.112;5.420;2024-03-02T11:35:41;100113.25;;;11.63;68.17
75418;BME280;63997;52.112;5.420;2024-03-02T11:38:14;100117.97;;;11.70;66.81
75418;BME280;63997;52.112;5.420;2024-03-02T11:40:40;100112.66;;;11.70;66.05
75418;BME280;63997;52.112;5.420;2024-03-02T11:43:07;100110.16;;;11.77;65.84
75418;BME280;63997;52.112;5.420;2024-03-02T11:45:35;100113.34;;;11.83;66.09
75418;BME280;63997;52.112;5.420;2024-03-02T11:48:06;100108.97;;;11.90;65.22
75418;BME280;63997;52.112;5.420;2024-03-02T11:50:40;100109.56;;;12.00;66.26
75418;BME280;63997;52.112;5.420;2024-03-02T11:53:08;100107.75;;;12.04;63.92
75418;BME280;63997;52.112;5.420;2024-03-02T11:55:35;100102.69;;;11.99;63.67
75418;BME280;63997;52.112;5.420;2024-03-02T11:58:05;100093.91;;;11.98;63.49
75418;BME280;63997;52.112;5.420;2024-03-02T12:00:32;100102.50;;;12.07;63.81
75418;BME280;63997;52.112;5.420;2024-03-02T12:05:33;100099.38;;;12.21;63.95
75418;BME280;63997;52.112;5.420;2024-03-02T12:08:02;100093.41;;;12.28;63.46
75418;BME280;63997;52.112;5.420;2024-03-02T12:10:29;100091.13;;;12.26;62.83
75418;BME280;63997;52.112;5.420;2024-03-02T12:13:06;100085.88;;;12.30;62.72
75418;BME280;63997;52.112;5.420;2024-03-02T12:15:35;100082.31;;;12.41;63.23
75418;BME280;63997;52.112;5.420;2024-03-02T12:18:04;100071.19;;;12.39;61.75
75418;BME280;63997;52.112;5.420;2024-03-02T12:20:32;100075.63;;;12.32;62.75
75418;BME280;63997;52.112;5.420;2024-03-02T12:23:00;100077.44;;;12.28;63.83
75418;BME280;63997;52.112;5.420;2024-03-02T12:25:28;100068.78;;;12.15;61.42
75418;BME280;63997;52.112;5.420;2024-03-02T12:27:58;100073.25;;;12.11;64.02
75418;BME280;63997;52.112;5.420;2024-03-02T12:30:27;100075.34;;;12.37;64.36
75418;BME280;63997;52.112;5.420;2024-03-02T12:32:55;100064.03;;;12.43;62.92
75418;BME280;63997;52.112;5.420;2024-03-02T12:35:24;100066.34;;;12.45;63.82
75418;BME280;63997;52.112;5.420;2024-03-02T12:37:53;100070.91;;;12.44;63.30
75418;BME280;63997;52.112;5.420;2024-03-02T12:40:20;100076.53;;;12.39;63.35
75418;BME280;63997;52.112;5.420;2024-03-02T12:42:50;100060.97;;;12.41;64.76
75418;BME280;63997;52.112;5.420;2024-03-02T12:45:17;100063.91;;;12.56;65.09
75418;BME280;63997;52.112;5.420;2024-03-02T12:47:51;100058.38;;;12.64;64.77
75418;BME280;63997;52.112;5.420;2024-03-02T12:50:18;100046.50;;;12.62;63.80
75418;BME280;63997;52.112;5.420;2024-03-02T12:52:52;100046.78;;;12.57;63.01
75418;BME280;63997;52.112;5.420;2024-03-02T12:55:20;100048.91;;;12.48;63.63
75418;BME280;63997;52.112;5.420;2024-03-02T12:57:49;100037.03;;;12.45;63.51
75418;BME280;63997;52.112;5.420;2024-03-02T13:00:18;100031.97;;;12.40;65.52
75418;BME280;63997;52.112;5.420;2024-03-02T13:02:45;100037.47;;;12.47;64.59
75418;BME280;63997;52.112;5.420;2024-03-02T13:05:14;100040.31;;;12.38;63.62
75418;BME280;63997;52.112;5.420;2024-03-02T13:07:41;100038.09;;;12.40;64.92
75418;BME280;63997;52.112;5.420;2024-03-02T13:10:08;100043.34;;;12.37;63.70
75418;BME280;63997;52.112;5.420;2024-03-02T13:12:36;100035.44;;;12.40;64.26
75418;BME280;63997;52.112;5.420;2024-03-02T13:15:04;100041.16;;;12.42;63.67